Time;durP1;ratioP1;P1;durP2;ratioP2;P2;SDS_P1;SDS_P2;PMS_P1;PMS_P2;Temp;Humidity;BMP_temperature;BMP_pressure;BME280_temperature;BME280_humidity;BME280_pressure;Samples;Min_cycle;Max_cycle;Signal;HPM_P1;HPM_P2
2021/12/03 00:01:47;;;;;;;9.20;3.50;;;;;;;4.92;52.53;97708.59;214033;1322;140295;-57
2021/12/03 00:06:50;;;;;;;10.70;4.40;;;;;;;4.91;52.48;97710.79;213036;1321;138930;-59
2021/12/03 00:11:53;;;;;;;9.50;3.50;;;;;;;4.84;52.48;97726.52;213364;1322;139265;-62
2021/12/03 00:16:56;;;;;;;7.60;3.50;;;;;;;4.81;52.13;97730.38;214649;1321;139397;-60
2021/12/03 00:22:00;;;;;;;10.60;3.60;;;;;;;4.75;52.14;97734.25;214280;1322;139524;-60
2021/12/03 00:27:04;;;;;;;10.70;3.60;;;;;;;4.70;52.07;97741.05;213727;1322;140891;-60
2021/12/03 00:32:08;;;;;;;9.60;3.60;;;;;;;4.67;52.09;97760.34;213573;1324;139523;-57
2021/12/03 00:37:11;;;;;;;9.40;2.90;;;;;;;4.61;51.92;97765.45;213830;1328;138979;-59
2021/12/03 00:42:17;;;;;;;6.40;2.70;;;;;;;4.52;51.99;97767.55;212670;1327;140036;-58
2021/12/03 00:47:20;;;;;;;8.30;3.40;;;;;;;4.45;51.84;97772.88;213520;1322;139950;-60
2021/12/03 00:52:23;;;;;;;11.80;3.20;;;;;;;4.42;51.69;97786.55;213749;1325;138879;-58
2021/12/03 00:57:26;;;;;;;6.50;2.90;;;;;;;4.37;51.79;97796.89;213527;1322;140754;-58
2021/12/03 01:02:30;;;;;;;10.40;3.10;;;;;;;4.33;51.75;97800.81;213465;1325;138443;-57
2021/12/03 01:07:33;;;;;;;8.00;2.60;;;;;;;4.25;51.76;97796.65;213175;1327;139603;-58
2021/12/03 01:12:37;;;;;;;4.70;2.60;;;;;;;4.20;52.13;97808.54;214364;1322;138878;-60
2021/12/03 01:17:40;;;;;;;5.50;2.60;;;;;;;4.15;51.97;97818.66;213560;1322;139152;-58
2021/12/03 01:22:46;;;;;;;6.60;2.70;;;;;;;4.10;51.86;97818.92;213445;1324;139419;-58
2021/12/03 01:27:51;;;;;;;5.10;2.30;;;;;;;4.04;52.11;97816.09;213275;1322;138397;-60
2021/12/03 01:32:55;;;;;;;6.40;2.50;;;;;;;4.00;52.06;97817.70;213759;1322;138974;-62
2021/12/03 01:37:58;;;;;;;7.60;2.50;;;;;;;3.97;52.21;97818.74;214497;1322;138757;-59
2021/12/03 01:43:03;;;;;;;7.00;2.60;;;;;;;3.90;52.22;97809.67;213866;1322;139232;-59
2021/12/03 01:48:07;;;;;;;4.30;2.10;;;;;;;3.87;52.33;97815.10;214441;1322;138784;-61
2021/12/03 01:53:14;;;;;;;6.00;1.90;;;;;;;3.85;52.40;97815.92;213392;1321;139402;-58
2021/12/03 01:58:17;;;;;;;5.10;2.10;;;;;;;3.80;52.42;97821.08;213632;1322;139070;-60
2021/12/03 02:03:25;;;;;;;7.00;2.50;;;;;;;3.76;52.42;97829.89;213703;1322;139226;-57
2021/12/03 02:08:28;;;;;;;5.80;2.10;;;;;;;3.74;52.64;97848.96;213628;1322;138431;-61
2021/12/03 02:13:31;;;;;;;5.00;2.10;;;;;;;3.70;52.51;97862.68;214294;1323;140426;-60
2021/12/03 02:18:34;;;;;;;5.70;2.80;;;;;;;3.67;52.63;97874.59;213118;1322;138885;-59
2021/12/03 02:23:38;;;;;;;3.90;1.90;;;;;;;3.64;52.71;97876.48;214397;1322;143351;-58
2021/12/03 02:28:45;;;;;;;8.10;2.50;;;;;;;3.64;52.84;97880.73;213021;1321;139633;-57
2021/12/03 02:33:49;;;;;;;8.30;2.70;;;;;;;3.65;53.01;97892.08;213913;1321;141064;-58
2021/12/03 02:38:52;;;;;;;6.20;2.40;;;;;;;3.66;53.02;97901.50;213917;1322;139466;-57
2021/12/03 02:43:55;;;;;;;5.90;2.30;;;;;;;3.66;52.95;97912.01;214378;1322;139635;-59
2021/12/03 02:48:58;;;;;;;6.30;2.40;;;;;;;3.63;52.74;97921.13;214408;1322;138939;-58
2021/12/03 02:54:02;;;;;;;7.20;2.60;;;;;;;3.62;52.89;97921.88;214166;1322;138788;-58
2021/12/03 02:59:05;;;;;;;7.00;2.80;;;;;;;3.60;52.92;97925.12;214812;1322;139286;-59
2021/12/03 03:04:08;;;;;;;5.00;2.70;;;;;;;3.60;53.16;97927.58;213475;1322;139534;-59
2021/12/03 03:09:11;;;;;;;6.60;2.60;;;;;;;3.56;52.80;97926.18;214391;1322;139992;-68
2021/12/03 03:14:15;;;;;;;8.10;2.50;;;;;;;3.56;52.86;97931.27;212876;1322;177284;-61
2021/12/03 03:19:21;;;;;;;6.60;2.70;;;;;;;3.51;52.99;97943.27;213154;1323;139024;-66
2021/12/03 03:24:25;;;;;;;6.90;2.60;;;;;;;3.46;53.13;97957.73;214066;1322;139453;-61
2021/12/03 03:29:28;;;;;;;5.60;2.70;;;;;;;3.44;52.93;97958.73;214332;1321;139662;-66
2021/12/03 03:34:31;;;;;;;5.70;2.40;;;;;;;3.31;52.94;97959.72;212947;1322;139449;-57
2021/12/03 03:39:35;;;;;;;4.90;2.60;;;;;;;3.22;53.15;97971.41;213019;1329;139794;-59
2021/12/03 03:44:39;;;;;;;7.60;2.70;;;;;;;3.16;53.25;97986.58;213121;1325;139672;-61
2021/12/03 03:49:42;;;;;;;7.60;3.10;;;;;;;3.14;53.46;97989.52;213576;1322;139426;-59
2021/12/03 03:54:45;;;;;;;8.20;3.00;;;;;;;3.13;53.54;97986.04;214263;1322;139394;-58
2021/12/03 03:59:48;;;;;;;6.50;3.30;;;;;;;3.08;53.55;98000.11;213960;1325;139111;-59
2021/12/03 04:04:51;;;;;;;6.50;2.80;;;;;;;3.04;53.71;98006.23;213803;1322;139643;-59
2021/12/03 04:09:54;;;;;;;6.20;2.80;;;;;;;3.04;53.87;98009.77;214425;1321;138537;-64
2021/12/03 04:14:57;;;;;;;6.90;2.80;;;;;;;3.00;53.81;98024.31;213313;1321;139422;-59
2021/12/03 04:20:01;;;;;;;9.30;2.90;;;;;;;2.92;54.05;98033.30;212239;1327;138512;-59
2021/12/03 04:25:09;;;;;;;10.80;3.10;;;;;;;2.86;54.10;98049.89;214415;1321;139600;-58
2021/12/03 04:30:17;;;;;;;5.90;2.90;;;;;;;2.86;54.24;98057.58;213598;1321;141191;-57
2021/12/03 04:35:23;;;;;;;6.20;2.70;;;;;;;2.86;54.33;98064.08;213693;1325;139074;-59
2021/12/03 04:40:28;;;;;;;6.20;3.10;;;;;;;2.86;54.53;98078.10;214441;1321;138840;-61
2021/12/03 04:45:31;;;;;;;7.10;3.20;;;;;;;2.85;54.59;98081.61;213477;1324;140950;-62
2021/12/03 04:50:37;;;;;;;5.80;3.00;;;;;;;2.87;54.63;98084.16;213145;1324;138890;-60
2021/12/03 04:55:41;;;;;;;5.80;2.40;;;;;;;2.87;54.69;98081.92;212781;1324;138647;-60
2021/12/03 05:00:49;;;;;;;4.50;1.70;;;;;;;2.88;54.91;98092.91;212889;1322;139436;-61
2021/12/03 05:05:59;;;;;;;3.70;1.60;;;;;;;2.80;54.44;98110.24;212912;1322;139346;-59
2021/12/03 05:11:02;;;;;;;3.50;1.60;;;;;;;2.65;54.40;98115.80;214105;1322;139485;-61
2021/12/03 05:16:05;;;;;;;4.40;1.60;;;;;;;2.56;54.54;98115.51;214444;1322;138568;-58
2021/12/03 05:21:09;;;;;;;3.10;1.50;;;;;;;2.53;54.74;98123.00;214075;1321;138891;-59
2021/12/03 05:26:12;;;;;;;3.80;1.80;;;;;;;2.54;54.87;98126.98;213142;1321;139093;-64
2021/12/03 05:31:16;;;;;;;7.10;2.20;;;;;;;2.57;54.97;98130.34;214326;1322;138986;-58
2021/12/03 05:36:19;;;;;;;7.50;2.80;;;;;;;2.60;54.95;98126.17;213827;1321;139040;-59
2021/12/03 05:41:22;;;;;;;7.30;2.80;;;;;;;2.62;55.15;98131.36;214295;1321;139023;-59
2021/12/03 05:46:26;;;;;;;4.90;2.40;;;;;;;2.64;55.21;98135.27;212948;1322;139066;-60
2021/12/03 05:51:30;;;;;;;5.10;2.00;;;;;;;2.64;54.95;98161.23;214604;1322;139471;-59
2021/12/03 05:56:33;;;;;;;4.50;2.30;;;;;;;2.56;55.15;98169.97;214111;1323;139213;-60
2021/12/03 06:01:36;;;;;;;8.00;2.60;;;;;;;2.52;55.12;98179.23;213953;1324;139477;-58
2021/12/03 06:06:39;;;;;;;3.80;2.20;;;;;;;2.51;55.18;98184.55;213980;1324;138758;-59
2021/12/03 06:11:42;;;;;;;7.40;2.60;;;;;;;2.48;55.30;98189.20;214359;1321;140185;-57
2021/12/03 06:16:45;;;;;;;6.20;2.50;;;;;;;2.48;55.29;98192.20;213155;1322;138646;-60
2021/12/03 06:21:49;;;;;;;6.50;2.90;;;;;;;2.51;55.53;98197.67;214168;1322;139471;-58
2021/12/03 06:26:52;;;;;;;10.30;3.50;;;;;;;2.47;55.54;98205.54;213511;1322;139734;-60
2021/12/03 06:31:56;;;;;;;6.60;3.50;;;;;;;2.47;55.71;98215.86;214199;1322;138610;-56
2021/12/03 06:36:59;;;;;;;7.40;3.70;;;;;;;2.49;55.94;98221.91;213923;1321;138912;-59
2021/12/03 06:42:02;;;;;;;10.20;4.10;;;;;;;2.52;55.87;98231.91;213626;1322;138256;-59
2021/12/03 06:47:05;;;;;;;7.60;4.40;;;;;;;2.51;55.81;98242.66;212722;1322;139314;-59
2021/12/03 06:52:12;;;;;;;8.20;4.40;;;;;;;2.47;55.98;98244.60;213998;1324;139063;-59
2021/12/03 06:57:15;;;;;;;7.10;4.40;;;;;;;2.45;56.17;98261.14;213524;1324;139369;-59
2021/12/03 07:02:19;;;;;;;18.70;9.50;;;;;;;2.54;56.89;98273.88;214627;1322;139786;-60
2021/12/03 07:07:22;;;;;;;11.50;5.20;;;;;;;2.67;56.56;98285.06;212692;1322;138426;-62
2021/12/03 07:12:25;;;;;;;32.80;22.10;;;;;;;2.61;56.25;98291.11;213530;1322;138702;-60
2021/12/03 07:17:32;;;;;;;23.60;12.60;;;;;;;2.64;56.67;98299.36;213122;1321;139461;-62
2021/12/03 07:22:40;;;;;;;9.50;5.70;;;;;;;2.68;56.46;98305.69;214450;1322;139864;-60
2021/12/03 07:27:43;;;;;;;11.90;6.40;;;;;;;2.64;56.47;98311.46;212979;1322;139491;-60
2021/12/03 07:32:48;;;;;;;17.10;7.30;;;;;;;2.65;56.88;98322.63;213970;1322;144046;-61
2021/12/03 07:37:51;;;;;;;13.10;5.40;;;;;;;2.66;56.46;98329.44;213801;1322;139014;-60
2021/12/03 07:42:54;;;;;;;9.10;4.60;;;;;;;2.56;56.56;98334.88;212865;1323;140359;-62
2021/12/03 07:47:57;;;;;;;12.70;5.00;;;;;;;2.52;56.69;98339.97;213765;1322;138316;-60
2021/12/03 07:53:02;;;;;;;11.50;5.20;;;;;;;2.45;56.62;98346.20;213960;1321;139502;-60
2021/12/03 07:58:05;;;;;;;12.00;4.90;;;;;;;2.39;56.79;98351.88;214064;1321;139029;-61
2021/12/03 08:03:08;;;;;;;12.60;4.80;;;;;;;2.32;56.89;98358.45;214324;1321;140845;-62
2021/12/03 08:08:12;;;;;;;10.70;5.10;;;;;;;2.29;57.23;98366.27;212324;1323;138691;-60
2021/12/03 08:13:15;;;;;;;141.30;77.70;;;;;;;2.25;57.50;98366.08;213871;1321;139730;-62
2021/12/03 08:18:20;;;;;;;17.30;6.90;;;;;;;2.38;57.92;98367.65;214196;1322;139662;-58
2021/12/03 08:23:24;;;;;;;15.90;5.90;;;;;;;2.44;57.64;98377.59;212945;1324;139850;-64
2021/12/03 08:28:27;;;;;;;12.70;5.80;;;;;;;2.44;57.64;98392.62;214137;1323;139879;-55
2021/12/03 08:33:30;;;;;;;11.10;4.90;;;;;;;2.44;57.68;98400.84;213120;1322;138956;-59
2021/12/03 08:38:33;;;;;;;15.30;6.20;;;;;;;2.46;57.55;98408.66;213847;1324;139193;-61
2021/12/03 08:43:45;;;;;;;22.00;10.00;;;;;;;2.47;57.93;98411.08;214180;1318;138975;-59
2021/12/03 08:48:49;;;;;;;15.60;6.50;;;;;;;2.60;58.06;98412.30;212316;1321;139060;-57
2021/12/03 08:59:15;;;;;;;10.00;3.80;;;;;;;2.55;57.45;98435.09;212208;1328;139523;-60
2021/12/03 09:04:18;;;;;;;6.10;3.40;;;;;;;2.48;57.02;98440.23;212069;1330;138594;-59
2021/12/03 09:09:21;;;;;;;6.10;3.50;;;;;;;2.47;57.09;98445.04;212294;1326;138642;-60
2021/12/03 09:20:36;;;;;;;9.90;5.30;;;;;;;2.37;56.91;98465.00;211951;1325;139099;-58
2021/12/03 09:25:12;;;;;;;9.70;4.70;;;;;;;2.43;57.07;98472.84;212133;1328;139217;-58
2021/12/03 09:30:17;;;;;;;9.60;4.70;;;;;;;2.40;56.90;98477.88;212162;1325;139416;-59
2021/12/03 09:35:23;;;;;;;13.70;4.20;;;;;;;2.41;56.98;98487.81;212157;1326;138953;-60
2021/12/03 09:40:30;;;;;;;7.60;4.40;;;;;;;2.40;57.16;98494.67;212304;1322;139126;-60
2021/12/03 09:45:34;;;;;;;20.70;9.90;;;;;;;2.46;57.26;98493.04;212803;1322;139267;-59
2021/12/03 09:50:39;;;;;;;8.10;4.00;;;;;;;2.57;57.25;98492.95;212745;1327;138800;-58
2021/12/03 09:55:42;;;;;;;6.60;2.80;;;;;;;2.50;56.82;98495.17;212356;1322;139742;-57
2021/12/03 10:00:53;;;;;;;8.40;3.50;;;;;;;2.47;56.84;98498.42;212841;1321;139049;-58
2021/12/03 10:17:23;;;;;;;6.90;3.20;;;;;;;2.39;56.54;98493.64;212547;1325;138695;-57
2021/12/03 10:37:57;;;;;;;7.00;3.10;;;;;;;2.65;56.40;98474.62;212212;1325;125441;-56
2021/12/03 10:48:32;;;;;;;7.30;2.90;;;;;;;2.84;55.73;98464.23;212689;1322;138964;-58
2021/12/03 10:53:41;;;;;;;8.00;3.20;;;;;;;2.90;55.54;98464.71;212456;1329;139534;-58
2021/12/03 10:59:17;;;;;;;8.80;3.30;;;;;;;2.91;55.52;98466.60;212309;1327;139154;-59
2021/12/03 11:36:43;;;;;;;10.10;4.40;;;;;;;2.92;55.14;98476.70;212669;1328;139908;-60
2021/12/03 12:44:01;;;;;;;8.10;3.90;;;;;;;3.71;52.21;98468.84;212229;1323;139513;-63
2021/12/03 14:41:18;;;;;;;12.80;5.10;;;;;;;3.14;51.35;98568.36;212503;1330;138844;-61
2021/12/03 14:46:50;;;;;;;11.60;5.10;;;;;;;3.11;51.49;98567.43;212326;1326;139099;-65
2021/12/03 14:57:14;;;;;;;16.70;5.80;;;;;;;3.04;51.40;98582.02;212140;1329;138933;-61
2021/12/03 15:07:42;;;;;;;13.50;5.20;;;;;;;2.92;51.23;98594.77;213065;1324;139441;-61
2021/12/03 15:13:10;;;;;;;146.10;78.90;;;;;;;2.87;51.23;98596.90;212613;1329;139620;-61
2021/12/03 15:29:37;;;;;;;12.40;5.20;;;;;;;3.00;51.25;98614.11;211500;1337;140240;-62
2021/12/03 16:22:19;;;;;;;19.80;8.00;;;;;;;2.56;50.98;98627.66;212423;1326;138582;-61
2021/12/03 16:54:12;;;;;;;16.30;9.10;;;;;;;2.35;50.57;98661.84;212475;1325;140499;-60
2021/12/03 16:59:15;;;;;;;23.10;9.50;;;;;;;2.27;50.60;98673.69;213141;1326;139676;-62
2021/12/03 17:51:44;;;;;;;29.90;13.30;;;;;;;2.05;51.46;98687.53;212303;1322;139255;-64
2021/12/03 17:56:54;;;;;;;35.30;13.90;;;;;;;1.98;51.55;98700.36;212310;1328;139144;-60
2021/12/03 18:18:24;;;;;;;26.60;12.70;;;;;;;1.81;51.83;98714.05;212154;1325;139733;-60
2021/12/03 18:50:26;;;;;;;25.10;11.20;;;;;;;1.81;51.96;98729.41;212519;1323;139389;-61
2021/12/03 18:55:42;;;;;;;23.50;11.10;;;;;;;1.85;51.66;98729.48;211987;1329;139604;-59
2021/12/03 19:00:46;;;;;;;24.10;11.80;;;;;;;1.82;51.58;98724.67;212485;1328;139761;-62
2021/12/03 19:11:56;;;;;;;28.60;13.60;;;;;;;1.77;51.63;98710.85;212772;1322;140975;-62
2021/12/03 19:16:35;;;;;;;32.10;13.50;;;;;;;1.71;51.45;98715.77;212124;1327;210460;-62
2021/12/03 19:21:42;;;;;;;33.30;15.90;;;;;;;1.63;51.35;98715.32;212343;1325;138946;-62
2021/12/03 19:26:46;;;;;;;35.40;16.90;;;;;;;1.47;51.37;98711.06;211960;1325;139270;-63
2021/12/03 19:31:51;;;;;;;35.30;18.40;;;;;;;1.37;51.24;98707.02;212210;1330;140720;-64
2021/12/03 19:36:55;;;;;;;90.10;49.10;;;;;;;1.33;51.13;98704.33;212071;1324;139771;-61
2021/12/03 19:42:20;;;;;;;41.40;20.70;;;;;;;1.40;51.69;98699.06;211762;1329;139647;-61
2021/12/03 19:48:10;;;;;;;42.10;19.90;;;;;;;1.34;51.07;98697.84;212063;1328;139645;-61
2021/12/03 19:52:58;;;;;;;40.70;18.30;;;;;;;1.22;50.98;98695.91;211931;1330;139694;-61
2021/12/03 19:58:01;;;;;;;39.30;18.00;;;;;;;1.12;51.03;98700.21;212532;1325;138979;-62
2021/12/03 20:03:05;;;;;;;39.50;17.20;;;;;;;1.09;50.95;98696.48;213012;1322;139771;-61
2021/12/03 20:08:08;;;;;;;40.50;16.90;;;;;;;1.03;50.86;98695.96;212705;1327;139413;-62
2021/12/03 20:13:12;;;;;;;37.80;17.30;;;;;;;0.96;50.98;98689.55;212712;1322;139807;-60
2021/12/03 20:34:05;;;;;;;31.90;15.20;;;;;;;1.24;52.13;98681.02;212131;1325;139429;-61
2021/12/03 20:39:15;;;;;;;33.80;14.20;;;;;;;1.42;50.93;98675.41;212125;1325;138548;-61
2021/12/03 20:49:30;;;;;;;28.20;13.20;;;;;;;1.25;50.38;98681.51;212514;1322;139454;-61
2021/12/03 21:10:51;;;;;;;27.90;13.10;;;;;;;1.20;50.21;98670.14;211987;1324;139598;-61
2021/12/03 21:21:40;;;;;;;22.30;10.70;;;;;;;1.19;49.47;98665.09;212087;1325;143060;-61
2021/12/03 21:26:39;;;;;;;26.90;10.80;;;;;;;1.15;49.52;98659.44;212733;1322;139268;-64
2021/12/03 21:31:53;;;;;;;25.00;11.50;;;;;;;1.09;49.39;98652.65;212913;1321;139407;-59
2021/12/03 21:42:20;;;;;;;20.90;10.00;;;;;;;1.00;49.58;98645.04;212673;1325;139248;-63
2021/12/03 21:47:23;;;;;;;21.80;9.30;;;;;;;1.00;49.35;98644.36;212480;1325;142418;-60
2021/12/03 21:52:27;;;;;;;22.70;10.40;;;;;;;1.00;49.37;98644.36;213246;1322;140382;-59
2021/12/03 21:57:30;;;;;;;20.30;9.80;;;;;;;1.01;49.32;98644.15;212510;1329;139112;-60
2021/12/03 22:02:34;;;;;;;23.90;10.40;;;;;;;1.04;49.42;98646.32;212677;1325;139051;-59
2021/12/03 22:07:37;;;;;;;20.30;10.00;;;;;;;1.09;49.22;98643.03;212371;1323;139145;-60
2021/12/03 22:12:40;;;;;;;21.20;9.60;;;;;;;1.16;49.31;98636.70;212400;1322;139348;-60
2021/12/03 22:17:43;;;;;;;23.10;10.00;;;;;;;1.22;49.22;98634.25;212150;1330;138955;-61
2021/12/03 22:22:49;;;;;;;22.50;10.00;;;;;;;1.27;49.17;98616.96;212378;1324;139956;-58
2021/12/03 22:27:52;;;;;;;20.10;8.70;;;;;;;1.32;49.06;98606.70;212090;1330;141248;-62
2021/12/03 22:32:56;;;;;;;22.10;9.60;;;;;;;1.31;48.84;98602.85;211876;1325;139766;-61
2021/12/03 22:38:06;;;;;;;18.00;9.00;;;;;;;1.31;48.94;98589.40;212585;1325;140096;-60
2021/12/03 22:43:11;;;;;;;17.10;8.40;;;;;;;1.39;49.02;98580.60;212418;1325;139288;-63
2021/12/03 22:48:23;;;;;;;17.20;8.30;;;;;;;1.47;48.93;98577.70;211813;1325;139011;-61
2021/12/03 22:53:27;;;;;;;16.10;8.70;;;;;;;1.54;48.69;98561.92;212747;1325;139085;-60
2021/12/03 22:58:30;;;;;;;16.00;8.50;;;;;;;1.56;48.61;98555.23;212388;1328;140078;-59
2021/12/03 23:03:35;;;;;;;20.10;8.50;;;;;;;1.54;48.61;98557.56;212120;1325;139878;-65
2021/12/03 23:08:38;;;;;;;21.30;8.80;;;;;;;1.56;48.66;98558.02;212198;1325;139884;-64
2021/12/03 23:13:48;;;;;;;17.10;8.20;;;;;;;1.53;48.56;98555.47;212641;1322;138768;-62
2021/12/03 23:18:51;;;;;;;18.70;8.50;;;;;;;1.50;48.44;98549.64;212216;1327;140468;-62
2021/12/03 23:23:54;;;;;;;20.70;9.10;;;;;;;1.50;48.58;98545.98;211859;1326;138601;-62
2021/12/03 23:28:58;;;;;;;19.60;9.30;;;;;;;1.50;48.75;98531.84;212065;1325;141127;-62
2021/12/03 23:34:01;;;;;;;23.00;9.70;;;;;;;1.50;48.56;98523.25;212868;1322;138763;-63
2021/12/03 23:39:05;;;;;;;21.40;9.50;;;;;;;1.40;48.55;98517.47;212296;1325;139298;-61
2021/12/03 23:44:09;;;;;;;21.30;9.80;;;;;;;1.32;48.55;98515.64;212145;1325;140853;-61
2021/12/03 23:49:12;;;;;;;22.00;9.90;;;;;;;1.26;48.61;98510.76;212069;1328;140016;-67
2021/12/03 23:54:15;;;;;;;21.00;9.30;;;;;;;1.23;48.74;98508.44;212349;1328;138996;-69
2021/12/03 23:59:23;;;;;;;17.90;8.80;;;;;;;1.17;48.67;98507.23;212201;1325;139455;-61
